NFTF/TBU METAR and TAF weather

Enter ICAO airport designator
Station Type Date Time Source
NFTF METAR 2020/01/23 06:00 UTC NOAA

NFTF 230600Z 10007KT 9999 FEW010 SCT016TCU BKN030 27/24 Q1009


Station Type Date Time Source
NFTF Decoded METAR 2020/01/23 06:00 UTC NOAA

Fua'Amotu, Tonga (NFTF) 21-14S 175-09W 41M
Jan 23, 2020 - 01:00 AM EST / 2020.01.23 0600 UTC
Wind: from the E (100 degrees) at 8 MPH (7 KT):0
Visibility: greater than 7 mile(s):0
Sky conditions: mostly cloudy
Weather: Towering cumulus clouds observed
Temperature: 80 F (27 C)
Dew Point: 75 F (24 C)
Relative Humidity: 83%
Pressure (altimeter): 29.80 in. Hg (1009 hPa)
ob: NFTF 230600Z 10007KT 9999 FEW010 SCT016TCU BKN030 27/24 Q1009
cycle: 6

Station Type Date Time Source
NFTF TAF 2020/01/23 06:28 UTC NOAA

TAF NFTF 230525Z 2306/2406 11008KT 9999 FEW010 SCT015 PROB30
TEMPO 2315/2321 5000 SHRA BKN015

Example: see airport list